createdAt,value
2019-05-17T00:00:37.125Z,6.47
2019-05-17T00:05:37.706Z,7.00
2019-05-17T00:10:39.041Z,7.00
2019-05-17T00:15:40.557Z,7.17
2019-05-17T00:20:42.032Z,7.53
2019-05-17T00:25:43.524Z,7.33
2019-05-17T00:30:46.479Z,7.53
2019-05-17T00:35:48.170Z,8.63
2019-05-17T00:40:49.456Z,8.03
2019-05-17T00:45:50.938Z,8.03
2019-05-17T00:50:54.136Z,8.40
2019-05-17T00:55:57.361Z,7.93
2019-05-17T01:00:59.027Z,9.03
2019-05-17T01:06:00.528Z,8.53
2019-05-17T01:11:02.058Z,8.67
2019-05-17T01:16:03.446Z,8.13
2019-05-17T01:21:06.442Z,8.90
2019-05-17T01:26:08.095Z,9.40
2019-05-17T01:31:09.637Z,8.33
2019-05-17T01:36:11.117Z,9.63
2019-05-17T01:41:12.636Z,9.40
2019-05-17T01:46:17.024Z,10.50
2019-05-17T01:51:18.461Z,11.33
2019-05-17T01:56:19.929Z,11.30
2019-05-17T02:01:21.464Z,12.17
2019-05-17T02:06:22.957Z,12.73
2019-05-17T02:11:26.764Z,12.67
2019-05-17T02:16:27.882Z,12.63
2019-05-17T02:21:29.373Z,12.47
2019-05-17T02:26:30.900Z,14.17
2019-05-17T02:31:32.958Z,13.50
2019-05-17T02:36:34.570Z,14.40
2019-05-17T02:41:36.108Z,14.97
2019-05-17T02:46:37.659Z,14.27
2019-05-17T02:51:39.184Z,14.27
2019-05-17T02:56:43.553Z,14.87
2019-05-17T03:01:44.496Z,15.70
2019-05-17T03:06:45.997Z,15.67
2019-05-17T03:11:47.506Z,15.93
2019-05-17T03:16:48.954Z,16.80
2019-05-17T03:21:53.302Z,17.00
2019-05-17T03:26:53.758Z,17.33
2019-05-17T03:32:00.048Z,17.23
2019-05-17T03:36:58.658Z,18.60
2019-05-17T03:42:02.636Z,19.60
2019-05-17T03:47:03.493Z,18.60
2019-05-17T03:52:04.773Z,19.63
2019-05-17T03:57:06.045Z,18.17
2019-05-17T04:02:07.552Z,22.90
2019-05-17T04:07:09.054Z,20.37
2019-05-17T04:12:13.652Z,18.93
2019-05-17T04:17:14.872Z,18.70
2019-05-17T04:22:16.396Z,18.10
2019-05-17T04:27:17.802Z,17.97
2019-05-17T04:32:19.264Z,19.73
2019-05-17T04:37:22.809Z,20.30
2019-05-17T04:42:24.422Z,18.43
2019-05-17T04:47:25.821Z,18.87
2019-05-17T04:52:27.398Z,19.03
2019-05-17T04:57:32.332Z,20.90
2019-05-17T05:02:33.216Z,19.67
2019-05-17T05:07:34.946Z,20.43
2019-05-17T05:12:36.465Z,19.23
2019-05-17T05:17:37.987Z,19.70
2019-05-17T05:22:42.298Z,19.47
2019-05-17T05:27:43.085Z,19.43
2019-05-17T05:32:44.630Z,21.33
2019-05-17T05:37:46.322Z,21.47
2019-05-17T05:42:47.827Z,21.43
2019-05-17T05:47:49.379Z,21.67
2019-05-17T05:52:52.428Z,21.30
2019-05-17T05:57:54.024Z,22.03
2019-05-17T06:02:55.572Z,21.13
2019-05-17T06:07:57.033Z,21.83
2019-05-17T06:12:58.618Z,21.57
2019-05-17T06:18:03.019Z,19.60
2019-05-17T06:23:04.848Z,18.50
2019-05-17T06:28:06.361Z,18.97
2019-05-17T06:33:07.828Z,18.20
2019-05-17T06:38:11.796Z,18.25
2019-05-17T06:43:13.373Z,18.98
2019-05-17T06:48:15.708Z,16.97
2019-05-17T06:53:17.199Z,17.10
2019-05-17T06:58:18.770Z,17.57
2019-05-17T07:03:20.251Z,17.80
2019-05-17T07:08:21.725Z,15.10
2019-05-17T07:13:23.267Z,15.38
2019-05-17T07:18:24.733Z,14.35
2019-05-17T07:23:26.237Z,14.80
2019-05-17T07:28:30.246Z,15.38
2019-05-17T07:33:32.018Z,14.25
2019-05-17T07:38:33.411Z,14.45
2019-05-17T07:43:35.022Z,13.38
2019-05-17T07:48:36.555Z,11.63
2019-05-17T07:53:40.067Z,12.63
2019-05-17T07:58:41.380Z,12.50
2019-05-17T08:03:42.873Z,12.20
2019-05-17T08:08:44.436Z,11.20
2019-05-17T08:13:45.830Z,11.85
2019-05-17T08:18:49.537Z,12.93
2019-05-17T08:23:50.826Z,12.20
2019-05-17T08:28:52.465Z,12.58
2019-05-17T08:33:53.971Z,11.15
2019-05-17T08:38:55.523Z,10.65
2019-05-17T08:43:57.074Z,11.33
2019-05-17T08:49:00.282Z,10.45
2019-05-17T08:54:02.118Z,10.25
2019-05-17T08:59:03.706Z,10.25
2019-05-17T09:04:05.346Z,9.23
2019-05-17T09:09:06.820Z,9.53
2019-05-17T09:14:10.253Z,10.10
2019-05-17T09:19:11.730Z,9.53
2019-05-17T09:24:13.224Z,11.18
2019-05-17T09:29:14.801Z,11.12
2019-05-17T09:34:16.327Z,11.15
2019-05-17T09:39:19.962Z,10.58
2019-05-17T09:44:21.267Z,10.48
2019-05-17T09:49:22.740Z,10.32
2019-05-17T09:54:38.954Z,9.93
2019-05-17T09:59:29.702Z,11.55
2019-05-17T10:04:31.272Z,11.03
2019-05-17T10:09:32.828Z,10.38
2019-05-17T10:14:34.462Z,10.53
2019-05-17T10:19:36.018Z,9.15
2019-05-17T10:24:42.022Z,10.25
2019-05-17T10:29:42.115Z,9.55
2019-05-17T10:34:43.656Z,8.98
2019-05-17T10:39:45.212Z,10.50
2019-05-17T10:44:47.902Z,10.28
2019-05-17T10:49:50.219Z,10.80
2019-05-17T10:54:51.677Z,9.85
2019-05-17T10:59:53.189Z,9.88
2019-05-17T11:04:54.785Z,9.70
2019-05-17T11:09:56.248Z,10.50
2019-05-17T11:15:10.367Z,10.80
2019-05-17T11:20:01.406Z,11.08
2019-05-17T11:25:03.535Z,11.10
2019-05-17T11:30:05.181Z,10.55
2019-05-17T11:35:06.700Z,10.43
2019-05-17T11:40:08.528Z,10.00
2019-05-17T11:45:14.815Z,9.73
2019-05-17T11:50:13.850Z,10.00
2019-05-17T11:55:15.343Z,9.38
2019-05-17T12:00:16.895Z,8.85
2019-05-17T12:05:18.376Z,9.90
2019-05-17T12:10:19.973Z,9.73
2019-05-17T12:15:21.460Z,10.75
2019-05-17T12:20:22.974Z,10.53
2019-05-17T12:25:24.522Z,10.58
2019-05-17T12:30:25.998Z,9.33
2019-05-17T12:35:27.638Z,9.28
2019-05-17T12:40:29.212Z,10.15
2019-05-17T12:45:30.744Z,9.68
2019-05-17T12:50:32.310Z,10.18
2019-05-17T12:55:33.883Z,10.85
2019-05-17T13:00:35.413Z,10.93
2019-05-17T13:05:36.854Z,9.60
2019-05-17T13:10:38.397Z,10.23
2019-05-17T13:15:39.863Z,9.70
2019-05-17T13:20:41.474Z,9.43
2019-05-17T13:25:43.854Z,10.15
2019-05-17T13:30:45.358Z,10.00
2019-05-17T13:35:46.893Z,10.00
2019-05-17T13:40:48.409Z,9.43
2019-05-17T13:45:49.947Z,9.35
2019-05-17T13:50:52.194Z,8.38
2019-05-17T13:55:53.968Z,9.70
2019-05-17T14:00:55.474Z,8.10
2019-05-17T14:05:57.022Z,9.10
2019-05-17T14:10:58.600Z,9.35
2019-05-17T14:16:00.123Z,10.30
2019-05-17T14:21:01.584Z,10.13
2019-05-17T14:26:03.182Z,10.00
2019-05-17T14:31:04.862Z,9.78
2019-05-17T14:36:06.446Z,10.05
2019-05-17T14:41:08.883Z,9.70
2019-05-17T14:46:10.721Z,10.38
2019-05-17T14:51:12.246Z,9.83
2019-05-17T14:56:13.825Z,9.35
2019-05-17T15:01:15.388Z,10.20
2019-05-17T15:06:17.044Z,12.28
2019-05-17T15:11:18.580Z,13.88
2019-05-17T15:16:20.221Z,12.00
2019-05-17T15:21:21.770Z,14.60
2019-05-17T15:26:23.209Z,16.12
2019-05-17T15:31:24.756Z,14.58
2019-05-17T15:36:26.104Z,14.28
2019-05-17T15:41:27.612Z,13.78
2019-05-17T15:46:29.165Z,15.25
2019-05-17T15:51:30.802Z,15.65
2019-05-17T15:56:32.452Z,15.13
2019-05-17T16:01:34.148Z,15.72
2019-05-17T16:06:35.767Z,15.43
2019-05-17T16:11:37.231Z,15.18
2019-05-17T16:16:38.738Z,14.93
2019-05-17T16:21:40.235Z,15.88
2019-05-17T16:26:41.640Z,15.72
2019-05-17T16:31:43.059Z,16.23
2019-05-17T16:36:44.311Z,16.60
2019-05-17T16:41:45.810Z,17.95
2019-05-17T16:46:47.549Z,16.23
2019-05-17T16:51:49.094Z,15.25
2019-05-17T16:56:53.167Z,14.53
2019-05-17T17:01:55.326Z,16.70
2019-05-17T17:06:56.890Z,18.50
2019-05-17T17:11:58.320Z,21.60
2019-05-17T17:16:59.846Z,22.30
2019-05-17T17:22:01.888Z,21.20
2019-05-17T17:27:03.240Z,19.70
2019-05-17T17:32:04.671Z,20.23
2019-05-17T17:37:08.121Z,19.77
2019-05-17T17:42:09.638Z,18.25
2019-05-17T17:47:10.951Z,17.02
2019-05-17T17:52:12.589Z,17.25
2019-05-17T17:57:14.128Z,17.05
2019-05-17T18:02:15.437Z,17.48
2019-05-17T18:07:16.961Z,19.55
2019-05-17T18:12:18.551Z,20.10
2019-05-17T18:17:20.198Z,18.62
2019-05-17T18:22:21.741Z,18.90
2019-05-17T18:27:27.756Z,18.75
2019-05-17T18:32:31.249Z,17.75
2019-05-17T18:37:32.782Z,17.12
2019-05-17T18:42:34.373Z,17.25
2019-05-17T18:47:36.146Z,17.87
2019-05-17T18:52:37.802Z,16.35
2019-05-17T18:57:39.328Z,17.73
2019-05-17T19:02:40.893Z,17.17
2019-05-17T19:07:42.424Z,16.85
2019-05-17T19:12:44.045Z,16.65
2019-05-17T19:17:45.546Z,15.88
2019-05-17T19:22:47.170Z,17.12
2019-05-17T19:27:48.994Z,15.90
2019-05-17T19:32:50.457Z,15.18
2019-05-17T19:37:52.003Z,15.80
2019-05-17T19:42:53.910Z,15.83
2019-05-17T19:47:55.677Z,15.23
2019-05-17T19:52:57.273Z,15.35
2019-05-17T19:57:58.855Z,15.95
2019-05-17T20:03:00.807Z,14.98
2019-05-17T20:08:02.422Z,17.05
2019-05-17T20:13:04.134Z,15.70
2019-05-17T20:18:05.682Z,17.30
2019-05-17T20:23:07.314Z,17.77
2019-05-17T20:28:08.814Z,16.25
2019-05-17T20:33:10.369Z,16.63
2019-05-17T20:38:11.868Z,15.80
2019-05-17T20:43:13.411Z,15.95
2019-05-17T20:48:15.615Z,17.27
2019-05-17T20:53:19.307Z,17.20
2019-05-17T20:58:20.634Z,15.77
2019-05-17T21:03:22.110Z,16.90
2019-05-17T21:08:26.521Z,17.73
2019-05-17T21:13:27.029Z,16.33
2019-05-17T21:18:28.602Z,16.67
2019-05-17T21:23:30.124Z,15.27
2019-05-17T21:28:31.668Z,15.58
2019-05-17T21:33:33.208Z,17.02
2019-05-17T21:38:34.713Z,18.23
2019-05-17T21:43:36.279Z,17.45
2019-05-17T21:48:37.706Z,20.23
2019-05-17T21:53:39.276Z,17.83
2019-05-17T21:58:40.795Z,17.27
2019-05-17T22:03:42.200Z,17.50
2019-05-17T22:08:43.727Z,20.67
2019-05-17T22:13:45.230Z,20.03
2019-05-17T22:18:46.817Z,20.97
2019-05-17T22:23:48.236Z,21.20
2019-05-17T22:28:49.736Z,22.23
2019-05-17T22:33:51.277Z,23.60
2019-05-17T22:38:52.799Z,22.20
2019-05-17T22:43:54.373Z,24.77
2019-05-17T22:48:55.863Z,25.10
2019-05-17T22:53:57.442Z,27.97
2019-05-17T22:58:59.021Z,25.33
2019-05-17T23:04:00.517Z,25.67
2019-05-17T23:09:02.063Z,25.17
2019-05-17T23:14:03.695Z,25.87
2019-05-17T23:19:05.208Z,28.00
2019-05-17T23:24:06.715Z,25.63
2019-05-17T23:29:11.039Z,28.37
2019-05-17T23:34:12.536Z,30.27
2019-05-17T23:39:14.035Z,26.97
2019-05-17T23:44:15.560Z,24.90
2019-05-17T23:49:17.107Z,25.43
2019-05-17T23:54:18.526Z,26.70
2019-05-17T23:59:19.944Z,26.87
